Terminal Aerodrome Forecast
Issued by NWS Kansas City/Pleasant Hill, MO

Home | Current Version | Previous Version | Text Only | Print | Product List | Glossary On
Versions: 1 2 3 4 5 6 7 8 9 10 11 12 13 14 15 16 17 18 19 20 21 22 23 24
000
FTUS43 KEAX 242300
TAFMCI
TAF
KMCI 242320Z 2500/2524 24008KT P6SM BKN020
     FM250500 20010KT P6SM FEW250
     FM251000 19010KT P6SM FEW250 WS010/21040KT
     FM251500 19018G30KT P6SM SCT200=

USA.gov is the U.S. government's official web portal to all federal, state and local government web resources and services.